Time;durP1;ratioP1;P1;durP2;ratioP2;P2;SDS_P1;SDS_P2;PMS_P1;PMS_P2;Temp;Humidity;BMP_temperature;BMP_pressure;BME280_temperature;BME280_humidity;BME280_pressure;Samples;Min_cycle;Max_cycle;Signal;HPM_P1;HPM_P2
2023/07/02 00:00:38;;;;;;;18.33;6.80;;;;;;;;;;5095417;28;20040;-74
2023/07/02 00:03:04;;;;;;;16.92;6.50;;;;;;;;;;5095817;28;20052;-74
2023/07/02 00:05:31;;;;;;;17.83;6.57;;;;;;;;;;5095640;28;20140;-75
2023/07/02 00:07:57;;;;;;;17.20;6.55;;;;;;;;;;5094293;28;20055;-75
2023/07/02 00:10:23;;;;;;;19.48;6.97;;;;;;;;;;5101742;28;20085;-74
2023/07/02 00:12:49;;;;;;;18.45;7.10;;;;;;;;;;5115716;28;20048;-74
2023/07/02 00:15:15;;;;;;;23.33;6.75;;;;;;;;;;5115111;28;20070;-74
2023/07/02 00:17:42;;;;;;;16.05;7.03;;;;;;;;;;5113892;28;20092;-75
2023/07/02 00:20:14;;;;;;;16.98;6.75;;;;;;;;;;5114606;28;20044;-74
2023/07/02 00:22:45;;;;;;;17.27;7.20;;;;;;;;;;5115634;28;20139;-74
2023/07/02 00:25:11;;;;;;;17.73;6.78;;;;;;;;;;5095881;28;20062;-74
2023/07/02 00:27:38;;;;;;;19.70;7.40;;;;;;;;;;5116010;28;20063;-74
2023/07/02 00:30:04;;;;;;;19.63;7.32;;;;;;;;;;5077701;28;20044;-74
2023/07/02 00:32:30;;;;;;;23.63;7.65;;;;;;;;;;5078655;28;20040;-74
2023/07/02 00:34:56;;;;;;;17.45;7.50;;;;;;;;;;5077678;28;20408;-74
2023/07/02 00:37:23;;;;;;;19.75;7.13;;;;;;;;;;5078307;28;20040;-75
2023/07/02 00:39:49;;;;;;;19.88;7.97;;;;;;;;;;5094507;28;20130;-74
2023/07/02 00:42:16;;;;;;;19.63;7.50;;;;;;;;;;5103898;28;20126;-75
2023/07/02 00:44:43;;;;;;;24.13;7.85;;;;;;;;;;5097250;28;20474;-75
2023/07/02 00:47:10;;;;;;;22.30;8.18;;;;;;;;;;5102613;28;20130;-74
2023/07/02 00:49:36;;;;;;;20.70;7.97;;;;;;;;;;5100434;28;20040;-74
2023/07/02 00:52:02;;;;;;;22.83;8.63;;;;;;;;;;5097840;28;20082;-74
2023/07/02 00:54:29;;;;;;;21.42;7.93;;;;;;;;;;5114893;28;20051;-75
2023/07/02 00:56:55;;;;;;;22.98;8.35;;;;;;;;;;5115389;28;20229;-75
2023/07/02 00:59:22;;;;;;;21.38;8.45;;;;;;;;;;5115029;28;20044;-75
2023/07/02 01:01:49;;;;;;;22.35;8.48;;;;;;;;;;5114673;28;20126;-74
2023/07/02 01:04:18;;;;;;;23.63;9.10;;;;;;;;;;5114949;28;20492;-75
2023/07/02 01:06:45;;;;;;;23.50;8.82;;;;;;;;;;5114805;28;20035;-75
2023/07/02 01:09:11;;;;;;;21.63;8.18;;;;;;;;;;5114660;28;20079;-74
2023/07/02 01:11:40;;;;;;;21.70;9.05;;;;;;;;;;5112293;28;20075;-75
2023/07/02 01:14:08;;;;;;;19.40;7.82;;;;;;;;;;5093824;28;20040;-75
2023/07/02 01:16:35;;;;;;;21.52;7.90;;;;;;;;;;5107499;28;20048;-75
2023/07/02 01:19:03;;;;;;;19.80;8.50;;;;;;;;;;5099284;28;20044;-74
2023/07/02 01:21:29;;;;;;;28.13;8.57;;;;;;;;;;5106388;28;20152;-74
2023/07/02 01:23:56;;;;;;;20.05;8.40;;;;;;;;;;5113522;28;20176;-74
2023/07/02 01:26:22;;;;;;;25.95;8.68;;;;;;;;;;5106721;28;20411;-74
2023/07/02 01:28:48;;;;;;;26.20;8.30;;;;;;;;;;5094016;28;20149;-75
2023/07/02 01:31:14;;;;;;;24.63;8.60;;;;;;;;;;5112902;28;20048;-74
2023/07/02 01:33:40;;;;;;;22.55;8.57;;;;;;;;;;5078900;28;20050;-75
2023/07/02 01:36:07;;;;;;;24.42;8.45;;;;;;;;;;5106166;28;20028;-74
2023/07/02 01:38:33;;;;;;;26.40;9.00;;;;;;;;;;5086761;28;20555;-74
2023/07/02 01:40:59;;;;;;;22.75;8.38;;;;;;;;;;5113829;28;20082;-74
2023/07/02 01:43:25;;;;;;;25.23;8.85;;;;;;;;;;5095735;28;20039;-74
2023/07/02 01:45:51;;;;;;;24.77;9.18;;;;;;;;;;5109495;28;20059;-74
2023/07/02 01:48:17;;;;;;;27.83;8.77;;;;;;;;;;5094961;28;20062;-74
2023/07/02 01:50:43;;;;;;;23.55;8.55;;;;;;;;;;5081389;28;20036;-74
2023/07/02 01:53:09;;;;;;;26.08;8.55;;;;;;;;;;5083522;28;20123;-74
2023/07/02 01:55:35;;;;;;;23.23;8.82;;;;;;;;;;5113405;28;20032;-74
2023/07/02 01:58:02;;;;;;;25.80;9.32;;;;;;;;;;5113791;28;20047;-73
2023/07/02 02:00:28;;;;;;;23.52;8.48;;;;;;;;;;5109593;28;20036;-75
2023/07/02 02:02:54;;;;;;;26.02;8.88;;;;;;;;;;5097517;28;20389;-75
2023/07/02 02:05:20;;;;;;;27.25;8.75;;;;;;;;;;5110879;28;20047;-75
2023/07/02 02:07:46;;;;;;;28.65;9.65;;;;;;;;;;5101438;28;20048;-74
2023/07/02 02:10:14;;;;;;;29.13;9.05;;;;;;;;;;5105304;28;20382;-75
2023/07/02 02:12:40;;;;;;;23.85;8.93;;;;;;;;;;5104998;28;20045;-75
2023/07/02 02:15:07;;;;;;;25.30;9.43;;;;;;;;;;5112428;28;20497;-74
2023/07/02 02:17:34;;;;;;;29.25;9.75;;;;;;;;;;5113596;28;20430;-74
2023/07/02 02:20:00;;;;;;;30.13;9.27;;;;;;;;;;5108368;28;20113;-74
2023/07/02 02:22:26;;;;;;;25.55;9.25;;;;;;;;;;5092937;28;20087;-74
2023/07/02 02:24:52;;;;;;;26.65;8.63;;;;;;;;;;5074051;28;20094;-74
2023/07/02 02:27:19;;;;;;;30.83;8.90;;;;;;;;;;5091350;28;20044;-74
2023/07/02 02:29:45;;;;;;;32.80;9.75;;;;;;;;;;5092107;28;20090;-74
2023/07/02 02:32:11;;;;;;;22.52;9.10;;;;;;;;;;5091627;28;20078;-74
2023/07/02 02:34:37;;;;;;;28.45;9.68;;;;;;;;;;5092722;28;20040;-75
2023/07/02 02:37:03;;;;;;;27.83;9.55;;;;;;;;;;5076786;28;20044;-74
2023/07/02 02:39:29;;;;;;;32.15;9.90;;;;;;;;;;5092700;28;20040;-74
2023/07/02 02:41:55;;;;;;;29.23;8.82;;;;;;;;;;5075135;28;20097;-74
2023/07/02 02:44:22;;;;;;;27.17;10.02;;;;;;;;;;5091953;28;20484;-74
2023/07/02 02:46:48;;;;;;;31.73;9.25;;;;;;;;;;5080014;28;20048;-75
2023/07/02 02:49:14;;;;;;;28.10;9.43;;;;;;;;;;5071855;28;20086;-75
2023/07/02 02:51:40;;;;;;;26.67;9.38;;;;;;;;;;5089769;28;20051;-74
2023/07/02 02:54:06;;;;;;;22.25;9.48;;;;;;;;;;5072889;28;20090;-74
2023/07/02 02:56:32;;;;;;;29.55;10.20;;;;;;;;;;5079833;28;20043;-75
2023/07/02 02:58:58;;;;;;;26.45;9.63;;;;;;;;;;5071771;28;20056;-74
2023/07/02 03:01:28;;;;;;;26.50;9.10;;;;;;;;;;5073313;28;20051;-74
2023/07/02 03:03:54;;;;;;;28.88;9.45;;;;;;;;;;5073065;28;20044;-74
2023/07/02 03:06:20;;;;;;;26.70;9.20;;;;;;;;;;5083377;28;20507;-75
2023/07/02 03:08:46;;;;;;;25.02;9.65;;;;;;;;;;5065063;28;20090;-75
2023/07/02 03:11:12;;;;;;;27.40;9.13;;;;;;;;;;5072415;28;20051;-73
2023/07/02 03:13:38;;;;;;;24.02;9.02;;;;;;;;;;5087796;28;20047;-73
2023/07/02 03:16:05;;;;;;;24.70;8.90;;;;;;;;;;5092500;28;20397;-74
2023/07/02 03:18:31;;;;;;;26.38;9.02;;;;;;;;;;5074344;28;20097;-74
2023/07/02 03:20:57;;;;;;;29.63;9.48;;;;;;;;;;5091894;28;20055;-74
2023/07/02 03:23:23;;;;;;;30.90;9.38;;;;;;;;;;5107160;28;20051;-74
2023/07/02 03:25:49;;;;;;;29.40;9.15;;;;;;;;;;5096879;28;20052;-74
2023/07/02 03:28:15;;;;;;;31.95;10.13;;;;;;;;;;5091006;28;20392;-74
2023/07/02 03:30:42;;;;;;;27.73;9.35;;;;;;;;;;5090888;28;20043;-74
2023/07/02 03:33:09;;;;;;;26.23;9.48;;;;;;;;;;5092262;28;20056;-74
2023/07/02 03:35:36;;;;;;;29.40;10.23;;;;;;;;;;5092085;28;20055;-74
2023/07/02 03:38:02;;;;;;;31.55;9.57;;;;;;;;;;5093013;28;20036;-74
2023/07/02 03:40:28;;;;;;;24.35;8.90;;;;;;;;;;5108146;28;20069;-74
2023/07/02 03:42:54;;;;;;;27.75;9.98;;;;;;;;;;5100903;28;20040;-74
2023/07/02 03:45:20;;;;;;;23.50;8.63;;;;;;;;;;5098039;28;20180;-74
2023/07/02 03:47:46;;;;;;;26.85;9.45;;;;;;;;;;5109472;28;20043;-74
2023/07/02 03:50:13;;;;;;;24.50;9.80;;;;;;;;;;5111523;28;20058;-74
2023/07/02 03:52:39;;;;;;;27.42;9.05;;;;;;;;;;5111161;28;20040;-74
2023/07/02 03:55:05;;;;;;;25.58;8.77;;;;;;;;;;5111777;28;20063;-74
2023/07/02 03:57:31;;;;;;;24.98;8.77;;;;;;;;;;5105810;28;20042;-74
2023/07/02 03:59:57;;;;;;;24.20;8.88;;;;;;;;;;5107682;28;20131;-74
2023/07/02 04:02:23;;;;;;;26.10;8.95;;;;;;;;;;5089655;28;20052;-74
2023/07/02 04:04:50;;;;;;;26.38;8.70;;;;;;;;;;5097869;28;20099;-74
2023/07/02 04:07:16;;;;;;;26.25;9.10;;;;;;;;;;5110713;28;20051;-74
2023/07/02 04:09:42;;;;;;;29.25;9.98;;;;;;;;;;5098490;28;20074;-74
2023/07/02 04:12:08;;;;;;;27.20;9.50;;;;;;;;;;5120560;28;20062;-73
2023/07/02 04:14:34;;;;;;;24.08;9.02;;;;;;;;;;5123385;28;20043;-73
2023/07/02 04:17:05;;;;;;;25.63;8.80;;;;;;;;;;5100372;28;20071;-73
2023/07/02 04:19:31;;;;;;;27.33;8.85;;;;;;;;;;5095735;28;20067;-74
2023/07/02 04:21:57;;;;;;;26.60;8.93;;;;;;;;;;5094366;28;20068;-74
2023/07/02 04:24:23;;;;;;;24.27;8.82;;;;;;;;;;5095840;28;20054;-74
2023/07/02 04:26:49;;;;;;;23.00;8.48;;;;;;;;;;5101193;28;20039;-74
2023/07/02 04:29:15;;;;;;;21.35;8.05;;;;;;;;;;5115783;28;20039;-74
2023/07/02 04:31:41;;;;;;;23.33;8.18;;;;;;;;;;5112943;28;20040;-74
2023/07/02 04:34:07;;;;;;;23.60;8.90;;;;;;;;;;5095351;28;20397;-74
2023/07/02 04:36:34;;;;;;;28.80;8.80;;;;;;;;;;5094847;28;20264;-73
2023/07/02 04:39:00;;;;;;;22.38;8.43;;;;;;;;;;5104185;28;20118;-74
2023/07/02 04:41:27;;;;;;;22.30;8.70;;;;;;;;;;5115762;28;20048;-74
2023/07/02 04:43:53;;;;;;;23.60;8.90;;;;;;;;;;5110801;28;20063;-74
2023/07/02 04:46:19;;;;;;;22.23;8.55;;;;;;;;;;5112627;28;20048;-74
2023/07/02 04:48:45;;;;;;;28.65;9.38;;;;;;;;;;5100357;28;20071;-74
2023/07/02 04:51:11;;;;;;;22.83;8.93;;;;;;;;;;5108684;28;20446;-74
2023/07/02 04:53:38;;;;;;;23.52;9.18;;;;;;;;;;5098942;28;20052;-74
2023/07/02 04:56:04;;;;;;;25.30;8.40;;;;;;;;;;5096015;28;20408;-74
2023/07/02 04:58:30;;;;;;;22.88;8.20;;;;;;;;;;5094819;28;20048;-74
2023/07/02 05:00:56;;;;;;;23.73;8.55;;;;;;;;;;5094905;28;20037;-73
2023/07/02 05:03:22;;;;;;;22.23;8.27;;;;;;;;;;5094756;28;20083;-74
2023/07/02 05:05:48;;;;;;;19.02;7.28;;;;;;;;;;5109717;28;20452;-73
2023/07/02 05:08:15;;;;;;;23.45;7.35;;;;;;;;;;5111531;28;20447;-74
2023/07/02 05:10:41;;;;;;;20.30;6.85;;;;;;;;;;5108785;28;20036;-74
2023/07/02 05:13:07;;;;;;;22.52;7.15;;;;;;;;;;5077402;28;20400;-74
2023/07/02 05:15:33;;;;;;;17.85;6.82;;;;;;;;;;5093153;28;20428;-74
2023/07/02 05:17:59;;;;;;;19.60;7.20;;;;;;;;;;5094443;28;20077;-74
2023/07/02 05:20:25;;;;;;;19.63;7.03;;;;;;;;;;5094022;28;20074;-74
2023/07/02 05:22:51;;;;;;;18.60;7.00;;;;;;;;;;5094733;28;20055;-75
2023/07/02 05:25:17;;;;;;;17.55;6.70;;;;;;;;;;5094175;28;20044;-74
2023/07/02 05:27:44;;;;;;;18.42;6.45;;;;;;;;;;5103935;28;20046;-74
2023/07/02 05:30:10;;;;;;;18.58;5.80;;;;;;;;;;5113767;28;20059;-74
2023/07/02 05:32:36;;;;;;;18.17;6.50;;;;;;;;;;5113136;28;20387;-74
2023/07/02 05:35:03;;;;;;;21.23;6.75;;;;;;;;;;5100936;28;20396;-73
2023/07/02 05:37:29;;;;;;;18.30;6.80;;;;;;;;;;5112628;28;20150;-73
2023/07/02 05:39:55;;;;;;;16.80;6.63;;;;;;;;;;5101753;28;20499;-74
2023/07/02 05:42:21;;;;;;;20.02;6.95;;;;;;;;;;5110438;28;20047;-74
2023/07/02 05:44:47;;;;;;;19.30;6.43;;;;;;;;;;5107376;28;20051;-74
2023/07/02 05:47:13;;;;;;;19.73;6.68;;;;;;;;;;5093875;28;20071;-74
2023/07/02 05:49:42;;;;;;;21.08;6.82;;;;;;;;;;5101695;28;20116;-74
2023/07/02 05:52:08;;;;;;;19.73;6.65;;;;;;;;;;5113743;28;20096;-74
2023/07/02 05:54:34;;;;;;;14.55;6.00;;;;;;;;;;5113088;28;20039;-74
2023/07/02 05:57:00;;;;;;;18.30;6.30;;;;;;;;;;5113468;28;20043;-74
2023/07/02 05:59:27;;;;;;;22.88;6.78;;;;;;;;;;5108749;28;20073;-74
2023/07/02 06:01:53;;;;;;;16.58;5.85;;;;;;;;;;5096250;28;20117;-74
2023/07/02 06:04:19;;;;;;;17.17;5.85;;;;;;;;;;5094764;28;20048;-74
2023/07/02 06:06:45;;;;;;;20.08;6.65;;;;;;;;;;5113738;28;20091;-74
2023/07/02 06:09:11;;;;;;;16.63;5.90;;;;;;;;;;5113714;28;20043;-73
2023/07/02 06:11:38;;;;;;;19.52;6.72;;;;;;;;;;5113574;28;20043;-74
2023/07/02 06:14:04;;;;;;;16.17;6.03;;;;;;;;;;5113999;28;20413;-74
2023/07/02 06:16:30;;;;;;;21.48;6.05;;;;;;;;;;5110081;28;20043;-74
2023/07/02 06:18:56;;;;;;;23.63;6.93;;;;;;;;;;5093229;28;20055;-74
2023/07/02 06:21:23;;;;;;;16.63;5.72;;;;;;;;;;5092874;28;20040;-74
2023/07/02 06:23:49;;;;;;;16.65;5.30;;;;;;;;;;5091054;28;20084;-74
2023/07/02 06:26:15;;;;;;;19.15;5.43;;;;;;;;;;5091179;28;20101;-74
2023/07/02 06:28:41;;;;;;;18.58;5.38;;;;;;;;;;5089706;28;20101;-74
2023/07/02 06:31:07;;;;;;;17.50;5.95;;;;;;;;;;5089085;28;20040;-74
2023/07/02 06:33:33;;;;;;;19.25;5.57;;;;;;;;;;5089930;28;20172;-74
2023/07/02 06:35:59;;;;;;;19.08;7.43;;;;;;;;;;5092768;28;20044;-74
2023/07/02 06:38:26;;;;;;;18.05;5.40;;;;;;;;;;5092827;28;20408;-75
2023/07/02 06:40:52;;;;;;;20.40;6.32;;;;;;;;;;5091403;28;20036;-75
2023/07/02 06:43:18;;;;;;;15.77;6.05;;;;;;;;;;5097818;28;20047;-75
2023/07/02 06:45:44;;;;;;;17.77;6.05;;;;;;;;;;5099387;28;20082;-75
2023/07/02 06:48:10;;;;;;;12.18;4.68;;;;;;;;;;5090338;28;20043;-75
2023/07/02 06:50:36;;;;;;;13.68;3.90;;;;;;;;;;5091962;28;20496;-74
2023/07/02 06:53:02;;;;;;;12.23;3.92;;;;;;;;;;5101599;28;20027;-74
2023/07/02 06:55:29;;;;;;;13.95;3.70;;;;;;;;;;5110239;28;20051;-74
2023/07/02 06:57:55;;;;;;;10.63;3.72;;;;;;;;;;5108915;28;20043;-73
2023/07/02 07:00:21;;;;;;;13.20;4.25;;;;;;;;;;5099855;28;20035;-73
2023/07/02 07:02:50;;;;;;;14.77;4.20;;;;;;;;;;5113073;28;20348;-73
2023/07/02 07:05:16;;;;;;;17.45;3.97;;;;;;;;;;5098326;28;20108;-73
2023/07/02 07:07:42;;;;;;;13.73;3.83;;;;;;;;;;5092234;28;20040;-73
2023/07/02 07:10:08;;;;;;;15.65;4.43;;;;;;;;;;5092099;28;20048;-74
2023/07/02 07:12:34;;;;;;;15.93;3.92;;;;;;;;;;5091441;28;20054;-74
2023/07/02 07:15:01;;;;;;;12.23;3.25;;;;;;;;;;5103433;28;20130;-76
2023/07/02 07:17:27;;;;;;;13.57;3.20;;;;;;;;;;5113346;28;20039;-74
2023/07/02 07:19:53;;;;;;;11.45;3.38;;;;;;;;;;5112436;28;20052;-74
2023/07/02 07:22:19;;;;;;;12.70;3.25;;;;;;;;;;5096166;28;20044;-74
2023/07/02 07:24:45;;;;;;;12.73;3.58;;;;;;;;;;5110343;28;20079;-74
2023/07/02 07:27:11;;;;;;;13.25;3.88;;;;;;;;;;5109020;28;20055;-73
2023/07/02 07:29:37;;;;;;;12.15;3.30;;;;;;;;;;5090580;28;20517;-74
2023/07/02 07:32:04;;;;;;;16.02;3.70;;;;;;;;;;5095321;28;20070;-74
2023/07/02 07:34:30;;;;;;;12.52;3.67;;;;;;;;;;5095647;28;20055;-74
2023/07/02 07:36:56;;;;;;;11.07;3.75;;;;;;;;;;5094331;28;20395;-73
2023/07/02 07:39:22;;;;;;;13.40;3.50;;;;;;;;;;5091682;28;20554;-74
2023/07/02 07:41:48;;;;;;;13.38;4.30;;;;;;;;;;5090770;28;20138;-74
2023/07/02 07:44:14;;;;;;;13.32;3.92;;;;;;;;;;5091711;28;20036;-74
2023/07/02 07:46:41;;;;;;;14.35;3.42;;;;;;;;;;5095809;28;20098;-73
2023/07/02 07:49:07;;;;;;;10.15;3.47;;;;;;;;;;5107654;28;20040;-73
2023/07/02 07:51:35;;;;;;;10.68;3.45;;;;;;;;;;5094450;28;20047;-73
2023/07/02 07:54:02;;;;;;;11.18;3.80;;;;;;;;;;5097883;28;20396;-73
2023/07/02 07:56:28;;;;;;;15.25;3.85;;;;;;;;;;5095996;28;20040;-73
2023/07/02 07:58:54;;;;;;;13.73;3.70;;;;;;;;;;5095837;28;20044;-73
2023/07/02 08:01:20;;;;;;;12.20;3.72;;;;;;;;;;5104101;28;20032;-73
2023/07/02 08:03:48;;;;;;;9.65;3.20;;;;;;;;;;5104378;28;20047;-74
2023/07/02 08:06:14;;;;;;;10.93;3.40;;;;;;;;;;5105058;28;20132;-74
2023/07/02 08:08:40;;;;;;;15.60;3.90;;;;;;;;;;5103477;28;20070;-74
2023/07/02 08:11:06;;;;;;;14.82;4.00;;;;;;;;;;5095906;28;20123;-74
2023/07/02 08:13:32;;;;;;;13.27;4.00;;;;;;;;;;5099785;28;20517;-74
2023/07/02 08:15:58;;;;;;;15.93;3.80;;;;;;;;;;5103624;28;20036;-74
2023/07/02 08:18:25;;;;;;;14.70;3.42;;;;;;;;;;5103569;28;20480;-74
2023/07/02 08:20:51;;;;;;;12.95;3.42;;;;;;;;;;5104741;28;20514;-74
2023/07/02 08:23:17;;;;;;;13.93;4.68;;;;;;;;;;5101944;28;20083;-74
2023/07/02 08:25:43;;;;;;;13.07;3.63;;;;;;;;;;5115540;28;20479;-73
2023/07/02 08:28:09;;;;;;;11.35;3.80;;;;;;;;;;5115824;28;20134;-73
2023/07/02 08:30:36;;;;;;;16.63;4.47;;;;;;;;;;5109465;28;20040;-74
2023/07/02 08:33:02;;;;;;;11.60;3.90;;;;;;;;;;5116182;28;20436;-74
2023/07/02 08:35:28;;;;;;;11.63;3.97;;;;;;;;;;5114125;28;20043;-74
2023/07/02 08:37:54;;;;;;;12.68;4.40;;;;;;;;;;5115646;28;20116;-74
2023/07/02 08:40:20;;;;;;;14.13;4.65;;;;;;;;;;5113494;28;20044;-74
2023/07/02 08:42:50;;;;;;;17.60;4.85;;;;;;;;;;5115775;28;20083;-74
2023/07/02 08:45:16;;;;;;;15.68;4.25;;;;;;;;;;5115515;28;20108;-74
2023/07/02 08:47:43;;;;;;;17.83;5.00;;;;;;;;;;5113994;28;20057;-74
2023/07/02 08:50:10;;;;;;;12.55;4.50;;;;;;;;;;5115050;28;20119;-74
2023/07/02 08:52:36;;;;;;;15.65;4.50;;;;;;;;;;5112940;28;20046;-75
2023/07/02 08:55:02;;;;;;;13.70;3.95;;;;;;;;;;5103018;28;20086;-73
2023/07/02 08:57:28;;;;;;;13.55;3.63;;;;;;;;;;5103795;28;20428;-72
2023/07/02 08:59:54;;;;;;;10.75;3.88;;;;;;;;;;5105225;28;20109;-73
2023/07/02 09:02:30;;;;;;;12.43;3.88;;;;;;;;;;5092950;28;20040;-74
2023/07/02 09:05:00;;;;;;;13.00;4.18;;;;;;;;;;5094178;28;20135;-73
2023/07/02 09:07:26;;;;;;;14.32;4.03;;;;;;;;;;5094639;28;20051;-74
2023/07/02 09:09:53;;;;;;;14.30;4.20;;;;;;;;;;5093085;28;20052;-73
2023/07/02 09:12:23;;;;;;;11.93;3.28;;;;;;;;;;5094748;28;20446;-74
2023/07/02 09:14:54;;;;;;;12.48;3.55;;;;;;;;;;5094259;28;20070;-74
2023/07/02 09:17:20;;;;;;;12.52;3.80;;;;;;;;;;5093627;28;20155;-74
2023/07/02 09:19:50;;;;;;;11.75;3.33;;;;;;;;;;5090359;28;20044;-74
2023/07/02 09:22:16;;;;;;;12.30;3.75;;;;;;;;;;5092947;28;20056;-74
2023/07/02 09:24:52;;;;;;;9.05;2.80;;;;;;;;;;5096907;28;20060;-75
2023/07/02 09:27:18;;;;;;;7.78;2.83;;;;;;;;;;5094359;28;20044;-74
2023/07/02 09:29:44;;;;;;;10.90;2.72;;;;;;;;;;5092318;28;20507;-74
2023/07/02 09:32:10;;;;;;;10.32;3.05;;;;;;;;;;5095093;28;20125;-72
2023/07/02 09:34:37;;;;;;;9.68;3.45;;;;;;;;;;5092827;28;20353;-73
2023/07/02 09:37:05;;;;;;;10.57;3.38;;;;;;;;;;5093857;28;20089;-72
2023/07/02 09:39:31;;;;;;;9.70;3.00;;;;;;;;;;5093772;28;20054;-72
2023/07/02 09:41:58;;;;;;;12.23;3.10;;;;;;;;;;5094039;28;20036;-72
2023/07/02 09:44:28;;;;;;;9.38;3.20;;;;;;;;;;5093824;28;20131;-72
2023/07/02 09:46:57;;;;;;;9.15;2.70;;;;;;;;;;5094723;28;20377;-72
2023/07/02 09:49:25;;;;;;;9.00;3.03;;;;;;;;;;5093502;28;20210;-71
2023/07/02 09:51:51;;;;;;;11.45;3.22;;;;;;;;;;5093557;28;20127;-72
2023/07/02 09:54:19;;;;;;;9.88;2.85;;;;;;;;;;5093914;28;20036;-72
2023/07/02 09:56:47;;;;;;;8.63;2.90;;;;;;;;;;5093696;28;20223;-72
2023/07/02 09:59:14;;;;;;;6.07;2.50;;;;;;;;;;5094432;28;20075;-72
2023/07/02 10:01:40;;;;;;;10.02;3.00;;;;;;;;;;5102158;28;20090;-72
2023/07/02 10:04:13;;;;;;;11.73;2.85;;;;;;;;;;5093306;28;20036;-73
2023/07/02 10:06:46;;;;;;;11.43;3.15;;;;;;;;;;5095320;28;20040;-73
2023/07/02 10:09:12;;;;;;;9.13;2.80;;;;;;;;;;5113433;28;20074;-72
2023/07/02 10:11:38;;;;;;;9.15;3.00;;;;;;;;;;5113515;28;20130;-71
2023/07/02 10:14:04;;;;;;;9.77;3.08;;;;;;;;;;5112817;28;20055;-71
2023/07/02 10:16:31;;;;;;;9.52;2.80;;;;;;;;;;5113303;28;20040;-71
2023/07/02 10:19:13;;;;;;;10.45;3.00;;;;;;;;;;5105020;28;20159;-71
2023/07/02 10:21:39;;;;;;;9.68;2.80;;;;;;;;;;5104233;28;20048;-71
2023/07/02 10:24:12;;;;;;;8.45;2.75;;;;;;;;;;5104175;28;20442;-71
2023/07/02 10:26:38;;;;;;;8.93;2.88;;;;;;;;;;5112149;28;20131;-71
2023/07/02 10:29:04;;;;;;;7.63;2.35;;;;;;;;;;5113109;28;20040;-72
2023/07/02 10:31:30;;;;;;;8.27;2.70;;;;;;;;;;5113202;28;20472;-71
2023/07/02 10:33:56;;;;;;;13.05;2.90;;;;;;;;;;5112884;28;20048;-72
2023/07/02 10:36:23;;;;;;;9.15;2.88;;;;;;;;;;5111068;28;20061;-72
2023/07/02 10:38:50;;;;;;;11.23;3.50;;;;;;;;;;5113094;28;20401;-72
2023/07/02 10:41:33;;;;;;;11.88;3.65;;;;;;;;;;5112603;28;20127;-72
2023/07/02 10:44:09;;;;;;;7.70;3.20;;;;;;;;;;5109693;28;20119;-71
2023/07/02 10:46:43;;;;;;;11.65;3.35;;;;;;;;;;5092647;28;20047;-71
2023/07/02 10:49:11;;;;;;;9.25;3.13;;;;;;;;;;5109354;28;20044;-72
2023/07/02 10:51:38;;;;;;;11.02;2.70;;;;;;;;;;5102635;28;20044;-72
2023/07/02 10:54:07;;;;;;;7.65;3.22;;;;;;;;;;5107621;28;20064;-72
2023/07/02 10:56:33;;;;;;;7.75;2.85;;;;;;;;;;5095386;28;20507;-73
2023/07/02 10:58:59;;;;;;;6.50;2.75;;;;;;;;;;5102272;28;20384;-73
2023/07/02 11:01:28;;;;;;;10.50;2.85;;;;;;;;;;5103947;28;20527;-73
2023/07/02 11:04:02;;;;;;;8.32;3.10;;;;;;;;;;5101378;28;20402;-72
2023/07/02 11:06:28;;;;;;;11.60;3.10;;;;;;;;;;5101759;28;20043;-72
2023/07/02 11:08:55;;;;;;;11.52;3.55;;;;;;;;;;5109185;28;20096;-72
2023/07/02 11:11:22;;;;;;;9.38;3.38;;;;;;;;;;5108390;28;20436;-71
2023/07/02 11:13:52;;;;;;;12.57;3.45;;;;;;;;;;5097804;28;20040;-71
2023/07/02 11:16:26;;;;;;;8.73;3.13;;;;;;;;;;5098864;28;20039;-72
2023/07/02 11:19:07;;;;;;;10.35;3.35;;;;;;;;;;5098050;28;20093;-72
2023/07/02 11:21:34;;;;;;;9.45;3.10;;;;;;;;;;5095893;28;20051;-73
2023/07/02 11:24:08;;;;;;;9.70;2.70;;;;;;;;;;5098302;28;20051;-71
2023/07/02 11:26:41;;;;;;;11.95;3.20;;;;;;;;;;5106963;28;20051;-71
2023/07/02 11:29:18;;;;;;;7.93;2.83;;;;;;;;;;5109180;28;20054;-71
2023/07/02 11:31:44;;;;;;;8.90;2.85;;;;;;;;;;5106394;28;20517;-70
2023/07/02 11:34:13;;;;;;;10.07;2.90;;;;;;;;;;5107503;28;20385;-70
2023/07/02 11:36:40;;;;;;;10.18;2.63;;;;;;;;;;5109020;28;20046;-70
2023/07/02 11:39:06;;;;;;;8.38;2.92;;;;;;;;;;5107955;28;20051;-70
2023/07/02 11:41:39;;;;;;;8.35;2.72;;;;;;;;;;5107850;28;20054;-70
2023/07/02 11:44:05;;;;;;;11.27;2.85;;;;;;;;;;5107572;28;20082;-71
2023/07/02 11:46:31;;;;;;;5.53;2.38;;;;;;;;;;5109094;28;20036;-71
2023/07/02 11:48:57;;;;;;;7.57;2.38;;;;;;;;;;5110520;28;20051;-74
2023/07/02 11:51:23;;;;;;;7.32;2.58;;;;;;;;;;5112237;28;20450;-73
2023/07/02 11:53:49;;;;;;;8.90;2.80;;;;;;;;;;5110006;28;20417;-73
2023/07/02 11:56:15;;;;;;;9.60;2.60;;;;;;;;;;5110624;28;20040;-73
2023/07/02 11:58:42;;;;;;;8.20;2.83;;;;;;;;;;5108717;28;20044;-73
2023/07/02 12:01:09;;;;;;;9.15;2.80;;;;;;;;;;5089634;28;20067;-73
2023/07/02 12:03:35;;;;;;;6.18;2.58;;;;;;;;;;5088619;28;20500;-73
2023/07/02 12:06:01;;;;;;;7.13;2.80;;;;;;;;;;5088659;28;20083;-75
2023/07/02 12:08:27;;;;;;;10.85;2.80;;;;;;;;;;5091421;28;20130;-74
2023/07/02 12:10:53;;;;;;;11.63;2.88;;;;;;;;;;5091419;28;20471;-74
2023/07/02 12:13:20;;;;;;;9.23;2.60;;;;;;;;;;5091154;28;20115;-74
2023/07/02 12:15:47;;;;;;;6.93;2.58;;;;;;;;;;5090286;28;20487;-74
2023/07/02 12:18:13;;;;;;;7.85;2.63;;;;;;;;;;5091797;28;20044;-74
2023/07/02 12:20:40;;;;;;;10.48;3.40;;;;;;;;;;5090351;28;20537;-73
2023/07/02 12:23:06;;;;;;;8.48;3.15;;;;;;;;;;5091875;28;20489;-74
2023/07/02 12:25:33;;;;;;;10.77;3.08;;;;;;;;;;5091513;28;20053;-73
2023/07/02 12:27:59;;;;;;;9.75;3.03;;;;;;;;;;5089927;28;20135;-73
2023/07/02 12:30:25;;;;;;;9.85;3.17;;;;;;;;;;5089900;28;20040;-74
2023/07/02 12:32:51;;;;;;;9.10;3.10;;;;;;;;;;5092941;28;20040;-73
2023/07/02 12:35:17;;;;;;;7.03;3.13;;;;;;;;;;5094951;28;20048;-73
2023/07/02 12:37:44;;;;;;;10.23;3.50;;;;;;;;;;5077266;28;20044;-73
2023/07/02 12:40:11;;;;;;;10.35;3.08;;;;;;;;;;5094347;28;20047;-73
2023/07/02 12:42:37;;;;;;;7.93;3.30;;;;;;;;;;5092720;28;20051;-73
2023/07/02 12:45:03;;;;;;;8.88;3.30;;;;;;;;;;5093799;28;20044;-73
2023/07/02 12:47:30;;;;;;;9.90;3.38;;;;;;;;;;5094790;28;20074;-74
2023/07/02 12:49:56;;;;;;;15.60;3.72;;;;;;;;;;5092254;28;20044;-73
2023/07/02 12:52:22;;;;;;;10.18;3.50;;;;;;;;;;5095220;28;20035;-74
2023/07/02 12:54:48;;;;;;;10.35;3.50;;;;;;;;;;5113519;28;20044;-73
2023/07/02 12:57:14;;;;;;;8.60;3.38;;;;;;;;;;5113940;28;20051;-73
2023/07/02 12:59:40;;;;;;;14.40;3.83;;;;;;;;;;5113884;28;20050;-73
2023/07/02 13:02:06;;;;;;;7.90;3.65;;;;;;;;;;5115248;28;20048;-74
2023/07/02 13:04:32;;;;;;;9.50;3.53;;;;;;;;;;5114725;28;20554;-74
2023/07/02 13:06:58;;;;;;;8.30;3.38;;;;;;;;;;5115314;28;20051;-73
2023/07/02 13:09:24;;;;;;;13.30;4.10;;;;;;;;;;5114897;28;20107;-73
2023/07/02 13:11:51;;;;;;;13.30;4.10;;;;;;;;;;5114883;28;20080;-73
2023/07/02 13:14:17;;;;;;;12.80;3.83;;;;;;;;;;5114880;28;20046;-73
2023/07/02 13:16:43;;;;;;;9.85;3.88;;;;;;;;;;5115307;28;20154;-73
2023/07/02 13:19:09;;;;;;;9.23;3.90;;;;;;;;;;5114493;28;20541;-74
2023/07/02 13:21:35;;;;;;;11.40;3.85;;;;;;;;;;5114511;28;20050;-74
2023/07/02 13:24:01;;;;;;;15.30;4.25;;;;;;;;;;5114722;28;20051;-73
2023/07/02 13:26:27;;;;;;;13.73;4.32;;;;;;;;;;5111806;28;20081;-73
2023/07/02 13:28:54;;;;;;;8.93;4.05;;;;;;;;;;5095055;28;20047;-74
2023/07/02 13:31:20;;;;;;;11.18;4.00;;;;;;;;;;5113182;28;20051;-74
2023/07/02 13:33:46;;;;;;;10.73;4.30;;;;;;;;;;5114309;28;20044;-74
2023/07/02 13:36:12;;;;;;;12.18;4.15;;;;;;;;;;5113931;28;20040;-74
2023/07/02 13:38:38;;;;;;;11.82;3.90;;;;;;;;;;5112730;28;20039;-74
2023/07/02 13:41:05;;;;;;;11.35;4.13;;;;;;;;;;5114488;28;20441;-74
2023/07/02 13:43:31;;;;;;;14.88;4.00;;;;;;;;;;5112670;28;20043;-74
2023/07/02 13:45:57;;;;;;;11.35;4.38;;;;;;;;;;5114420;28;20093;-74
2023/07/02 13:48:23;;;;;;;15.75;3.85;;;;;;;;;;5112695;28;20048;-75
2023/07/02 13:50:50;;;;;;;12.35;4.30;;;;;;;;;;5095618;28;20044;-75
2023/07/02 13:53:16;;;;;;;13.18;4.45;;;;;;;;;;5114073;28;20043;-74
2023/07/02 13:55:42;;;;;;;12.02;4.25;;;;;;;;;;5114098;28;20050;-73
2023/07/02 13:58:08;;;;;;;12.02;4.43;;;;;;;;;;5113905;28;20487;-73
2023/07/02 14:00:34;;;;;;;12.10;4.43;;;;;;;;;;5113538;28;20078;-75
2023/07/02 14:03:01;;;;;;;15.27;4.50;;;;;;;;;;5113263;28;20099;-75
2023/07/02 14:05:27;;;;;;;15.88;5.07;;;;;;;;;;5111879;28;20043;-75
2023/07/02 14:07:54;;;;;;;12.88;4.50;;;;;;;;;;5114598;28;20071;-74
2023/07/02 14:10:20;;;;;;;11.77;4.40;;;;;;;;;;5119044;28;20067;-74
2023/07/02 14:12:46;;;;;;;13.90;4.57;;;;;;;;;;5119750;28;20044;-73
2023/07/02 14:15:12;;;;;;;12.73;4.57;;;;;;;;;;5117215;28;20051;-73
2023/07/02 14:17:39;;;;;;;13.48;4.40;;;;;;;;;;5108841;28;20416;-73
2023/07/02 14:20:06;;;;;;;16.40;4.55;;;;;;;;;;5111277;28;20047;-75
2023/07/02 14:22:32;;;;;;;13.23;4.85;;;;;;;;;;5113806;28;20052;-75
2023/07/02 14:24:58;;;;;;;10.48;4.03;;;;;;;;;;5113762;28;20044;-75
2023/07/02 14:27:24;;;;;;;15.20;4.70;;;;;;;;;;5112568;28;20043;-74